NCAR-RAP Real-Time Weather Data

Output produced by METARs form (06 May 2021  16:45 UTC)
found at http://weather.rap.ucar.edu/surface/
 
KLOZ 061553Z AUTO 08004KT 10SM CLR 14/02 A3015 RMK AO2 SLP207 T01390022
KLOZ 061453Z AUTO VRB05KT 10SM CLR 13/02 A3017 RMK AO2 SLP214 T01280017 58002
KLOZ 061353Z AUTO 11007KT 10SM CLR 11/04 A3018 RMK AO2 SLP218 T01110039
KLOZ 061253Z AUTO 09005KT 10SM CLR 10/06 A3018 RMK AO2 SLP218 T01000056
KLOZ 061153Z AUTO 00000KT 10SM CLR 08/05 A3017 RMK AO2 SLP217 T00780050 10078 20050 53022
KLOZ 061053Z AUTO 35003KT 10SM CLR 05/03 A3014 RMK AO2 SLP204 T00500033
KLOZ 060953Z AUTO 00000KT 10SM CLR 06/04 A3011 RMK AO2 SLP196 T00610039
KLOZ 060853Z AUTO 36003KT 10SM CLR 06/04 A3011 RMK AO2 SLP193 T00610039 56005
KLOZ 060753Z AUTO 01004KT 10SM CLR 07/04 A3011 RMK AO2 SLP195 T00670039
KLOZ 060653Z AUTO 36003KT 10SM CLR 06/04 A3011 RMK AO2 SLP197 T00610044
KLOZ 060553Z AUTO 00000KT 10SM CLR 07/05 A3012 RMK AO2 SLP199 T00670050 10144 20061 58001
KLOZ 060453Z AUTO 00000KT 10SM CLR 08/06 A3012 RMK AO2 SLP198 T00830061 401830078
KLOZ 060353Z AUTO 00000KT 10SM CLR 09/07 A3013 RMK AO2 SLP201 T00890067
KLOZ 060253Z AUTO 00000KT 10SM BKN055 10/07 A3012 RMK AO2 SLP198 T01000072 53013
KLOZ 060153Z AUTO 00000KT 10SM SCT050 11/07 A3011 RMK AO2 SLP194 T01060072
KLOZ 060053Z AUTO 33005KT 10SM CLR 13/06 A3009 RMK AO2 SLP188 T01280061